createdAt,value
2023-04-15T00:01:10.189Z,93985.16
2023-04-15T00:03:37.120Z,93979.53
2023-04-15T00:06:04.197Z,93986.63
2023-04-15T00:08:31.116Z,93976.31
2023-04-15T00:11:02.776Z,93989.19
2023-04-15T00:13:29.753Z,93980.59
2023-04-15T00:15:56.492Z,93987.06
2023-04-15T00:18:24.300Z,93981.81
2023-04-15T00:20:51.110Z,93982.09
2023-04-15T00:23:18.131Z,93975.38
2023-04-15T00:25:45.452Z,93975.66
2023-04-15T00:28:12.422Z,93975.66
2023-04-15T00:30:39.537Z,93973.34
2023-04-15T00:33:06.730Z,93974.03
2023-04-15T00:35:33.643Z,93974.69
2023-04-15T00:38:00.699Z,93970.13
2023-04-15T00:40:27.871Z,93974.69
2023-04-15T00:42:55.175Z,93971.75
2023-04-15T00:45:21.993Z,93973.50
2023-04-15T00:47:48.840Z,93972.28
2023-04-15T00:50:16.918Z,93957.38
2023-04-15T00:52:43.841Z,93965.31
2023-04-15T00:55:11.395Z,93963.81
2023-04-15T00:57:39.622Z,93962.22
2023-04-15T01:00:08.943Z,93971.34
2023-04-15T01:02:39.132Z,93967.59
2023-04-15T01:05:06.362Z,93965.19
2023-04-15T01:07:33.257Z,93964.66
2023-04-15T01:10:00.157Z,93968.16
2023-04-15T01:12:27.483Z,93965.06
2023-04-15T01:14:55.328Z,93958.50
2023-04-15T01:17:22.134Z,93962.91
2023-04-15T01:19:48.845Z,93961.44
2023-04-15T01:22:16.412Z,93961.28
2023-04-15T01:24:49.918Z,93959.03
2023-04-15T01:27:17.056Z,93955.81
2023-04-15T01:29:43.729Z,93956.09
2023-04-15T01:32:11.999Z,93958.63
2023-04-15T01:34:38.827Z,93958.06
2023-04-15T01:37:06.054Z,93958.88
2023-04-15T01:39:32.827Z,93957.41
2023-04-15T01:41:59.501Z,93955.81
2023-04-15T01:44:26.522Z,93949.09
2023-04-15T01:46:53.240Z,93954.31
2023-04-15T01:49:20.141Z,93950.03
2023-04-15T01:51:46.879Z,93953.91
2023-04-15T01:54:13.416Z,93958.75
2023-04-15T01:56:40.135Z,93961.81
2023-04-15T01:59:07.095Z,93960.91
2023-04-15T02:01:33.905Z,93961.81
2023-04-15T02:04:01.019Z,93964.94
2023-04-15T02:06:28.350Z,93960.50
2023-04-15T02:08:55.443Z,93961.81
2023-04-15T02:11:23.244Z,93965.03
2023-04-15T02:13:49.916Z,93960.63
2023-04-15T02:16:20.507Z,93966.25
2023-04-15T02:18:48.087Z,93960.22
2023-04-15T02:21:14.914Z,93960.50
2023-04-15T02:23:41.704Z,93958.34
2023-04-15T02:26:08.320Z,93960.50
2023-04-15T02:28:34.982Z,93953.91
2023-04-15T02:31:06.660Z,93956.47
2023-04-15T02:33:33.577Z,93956.34
2023-04-15T02:36:01.125Z,93961.44
2023-04-15T02:38:28.425Z,93961.28
2023-04-15T02:40:55.818Z,93965.47
2023-04-15T02:43:22.466Z,93967.88
2023-04-15T02:45:51.446Z,93960.38
2023-04-15T02:48:19.739Z,93959.16
2023-04-15T02:50:47.898Z,93960.22
2023-04-15T02:53:15.658Z,93956.88
2023-04-15T02:55:42.939Z,93961.03
2023-04-15T02:58:09.740Z,93961.84
2023-04-15T03:00:36.693Z,93961.19
2023-04-15T03:03:06.261Z,93958.63
2023-04-15T03:05:33.361Z,93960.50
2023-04-15T03:08:03.298Z,93956.34
2023-04-15T03:10:29.985Z,93958.63
2023-04-15T03:12:56.579Z,93957.81
2023-04-15T03:15:24.200Z,93952.56
2023-04-15T03:17:52.896Z,93957.16
2023-04-15T03:20:20.440Z,93951.75
2023-04-15T03:22:48.412Z,93950.69
2023-04-15T03:25:15.676Z,93955.25
2023-04-15T03:27:43.217Z,93947.34
2023-04-15T03:30:11.598Z,93949.09
2023-04-15T03:32:40.163Z,93953.25
2023-04-15T03:35:08.410Z,93945.59
2023-04-15T03:37:35.815Z,93951.66
2023-04-15T03:40:02.873Z,93945.88
2023-04-15T03:42:29.658Z,93944.66
2023-04-15T03:44:56.712Z,93947.22
2023-04-15T03:47:23.858Z,93952.19
2023-04-15T03:49:50.602Z,93941.69
2023-04-15T03:52:17.196Z,93953.53
2023-04-15T03:54:43.710Z,93944.53
2023-04-15T03:57:10.757Z,93952.84
2023-04-15T03:59:37.418Z,93956.19
2023-04-15T04:02:04.277Z,93958.22
2023-04-15T04:04:31.073Z,93958.34
2023-04-15T04:06:57.643Z,93959.56
2023-04-15T04:09:24.495Z,93952.31
2023-04-15T04:11:51.235Z,93963.84
2023-04-15T04:14:17.762Z,93953.91
2023-04-15T04:16:45.255Z,93961.72
2023-04-15T04:19:12.276Z,93960.91
2023-04-15T04:21:39.765Z,93974.03
2023-04-15T04:24:06.517Z,93969.59
2023-04-15T04:26:33.269Z,93962.78
2023-04-15T04:28:59.956Z,93972.28
2023-04-15T04:31:27.285Z,93976.03
2023-04-15T04:33:53.944Z,93973.78
2023-04-15T04:36:20.613Z,93971.47
2023-04-15T04:38:47.170Z,93972.59
2023-04-15T04:41:13.986Z,93975.91
2023-04-15T04:43:40.526Z,93977.94
2023-04-15T04:46:07.225Z,93977.41
2023-04-15T04:48:34.212Z,93979.03
2023-04-15T04:51:01.169Z,93980.63
2023-04-15T04:53:28.074Z,93977.81
2023-04-15T04:55:54.854Z,93979.03
2023-04-15T04:58:21.530Z,93985.88
2023-04-15T05:00:48.190Z,93979.97
2023-04-15T05:03:15.542Z,93984.25
2023-04-15T05:05:42.488Z,93983.19
2023-04-15T05:08:09.281Z,93984.69
2023-04-15T05:10:36.288Z,93980.09
2023-04-15T05:13:02.946Z,93978.09
2023-04-15T05:15:29.757Z,93981.16
2023-04-15T05:17:56.797Z,93977.69
2023-04-15T05:20:23.639Z,93981.69
2023-04-15T05:22:50.301Z,93975.00
2023-04-15T05:25:17.348Z,93974.47
2023-04-15T05:27:44.185Z,93987.09
2023-04-15T05:30:13.323Z,93980.09
2023-04-15T05:32:40.673Z,93975.00
2023-04-15T05:35:08.173Z,93976.59
2023-04-15T05:37:35.098Z,93980.22
2023-04-15T05:40:01.712Z,93978.06
2023-04-15T05:42:28.508Z,93985.56
2023-04-15T05:44:55.286Z,93986.25
2023-04-15T05:47:21.882Z,93985.03
2023-04-15T05:49:48.489Z,93986.50
2023-04-15T05:52:15.471Z,93987.81
2023-04-15T05:54:42.107Z,93985.69
2023-04-15T05:57:08.867Z,93984.31
2023-04-15T05:59:36.100Z,93990.88
2023-04-15T06:02:02.916Z,93990.72
2023-04-15T06:04:29.732Z,93986.16
2023-04-15T06:06:57.039Z,93994.47
2023-04-15T06:09:23.704Z,93994.47
2023-04-15T06:11:51.780Z,93995.66
2023-04-15T06:14:18.434Z,93995.00
2023-04-15T06:16:45.107Z,93996.34
2023-04-15T06:19:12.527Z,94000.25
2023-04-15T06:21:39.190Z,93996.88
2023-04-15T06:24:06.042Z,93999.16
2023-04-15T06:26:32.900Z,93999.41
2023-04-15T06:28:59.723Z,94003.31
2023-04-15T06:31:27.005Z,93998.72
2023-04-15T06:33:53.553Z,94003.41
2023-04-15T06:36:20.730Z,94003.22
2023-04-15T06:38:47.277Z,94000.81
2023-04-15T06:41:14.007Z,94002.66
2023-04-15T06:43:40.595Z,94002.66
2023-04-15T06:46:07.338Z,94015.13
2023-04-15T06:48:34.075Z,94005.03
2023-04-15T06:51:01.449Z,94000.44
2023-04-15T06:53:28.391Z,94002.78
2023-04-15T06:55:55.083Z,94001.41
2023-04-15T06:58:22.200Z,94000.84
2023-04-15T07:00:49.105Z,94003.00
2023-04-15T07:03:16.079Z,93999.56
2023-04-15T07:05:42.738Z,93992.25
2023-04-15T07:08:09.769Z,93992.84
2023-04-15T07:10:36.974Z,93995.63
2023-04-15T07:13:04.334Z,93995.69
2023-04-15T07:15:31.137Z,93988.59
2023-04-15T07:17:57.823Z,93986.19
2023-04-15T07:20:24.637Z,93995.13
2023-04-15T07:22:51.217Z,93990.84
2023-04-15T07:25:19.108Z,93993.38
2023-04-15T07:27:45.891Z,93992.19
2023-04-15T07:30:12.870Z,93991.63
2023-04-15T07:32:42.808Z,93994.06
2023-04-15T07:35:09.788Z,93987.81
2023-04-15T07:37:36.669Z,93993.97
2023-04-15T07:40:04.912Z,93996.06
2023-04-15T07:42:31.853Z,93991.38
2023-04-15T07:44:58.509Z,93994.16
2023-04-15T07:47:25.977Z,93992.44
2023-04-15T07:49:53.171Z,93991.91
2023-04-15T07:52:19.917Z,93999.47
2023-04-15T07:54:46.865Z,94001.91
2023-04-15T07:57:13.470Z,94007.06
2023-04-15T07:59:40.364Z,94005.00
2023-04-15T08:02:07.370Z,94006.13
2023-04-15T08:04:34.416Z,94004.69
2023-04-15T08:07:01.341Z,94009.19
2023-04-15T08:09:28.036Z,94007.28
2023-04-15T08:11:54.702Z,94006.16
2023-04-15T08:14:21.723Z,93995.34
2023-04-15T08:16:48.310Z,93995.81
2023-04-15T08:19:15.081Z,94001.75
2023-04-15T08:21:44.620Z,93998.19
2023-04-15T08:24:11.559Z,94000.22
2023-04-15T08:26:38.255Z,94001.56
2023-04-15T08:29:05.135Z,93992.19
2023-04-15T08:31:32.148Z,93992.66
2023-04-15T08:33:59.350Z,93994.13
2023-04-15T08:36:27.041Z,93997.59
2023-04-15T08:38:54.041Z,94002.28
2023-04-15T08:41:22.450Z,93997.06
2023-04-15T08:43:54.414Z,94000.59
2023-04-15T08:46:21.523Z,93996.50
2023-04-15T08:48:49.462Z,94000.19
2023-04-15T08:51:18.238Z,94006.50
2023-04-15T08:53:47.505Z,94002.34
2023-04-15T08:56:16.833Z,94000.03
2023-04-15T08:58:47.766Z,93998.28
2023-04-15T09:01:14.418Z,94000.94
2023-04-15T09:03:42.542Z,93997.22
2023-04-15T09:06:09.455Z,94001.75
2023-04-15T09:08:36.312Z,94001.56
2023-04-15T09:11:03.658Z,94002.03
2023-04-15T09:13:31.009Z,94008.91
2023-04-15T09:15:58.465Z,94013.16
2023-04-15T09:18:30.813Z,94010.06
2023-04-15T09:21:09.064Z,94016.38
2023-04-15T09:23:36.291Z,94016.00
2023-04-15T09:26:04.050Z,94010.78
2023-04-15T09:28:31.396Z,94018.00
2023-04-15T09:30:59.895Z,94020.41
2023-04-15T09:33:28.199Z,94023.66
2023-04-15T09:36:04.708Z,94020.22
2023-04-15T09:38:32.132Z,94020.19
2023-04-15T09:40:59.258Z,94031.00
2023-04-15T09:43:40.168Z,94030.88
2023-04-15T09:46:06.937Z,94033.13
2023-04-15T09:48:33.590Z,94034.66
2023-04-15T09:51:01.909Z,94032.28
2023-04-15T09:53:31.172Z,94027.94
2023-04-15T09:56:03.362Z,94024.38
2023-04-15T09:58:32.281Z,94031.66
2023-04-15T10:01:00.488Z,94031.47
2023-04-15T10:03:29.444Z,94031.56
2023-04-15T10:05:57.622Z,94032.63
2023-04-15T10:08:29.217Z,94037.56
2023-04-15T10:10:56.354Z,94036.03
2023-04-15T10:13:29.734Z,94037.38
2023-04-15T10:16:01.233Z,94035.47
2023-04-15T10:18:29.288Z,94037.84
2023-04-15T10:20:56.017Z,94040.69
2023-04-15T10:23:24.570Z,94035.41
2023-04-15T10:25:54.561Z,94036.56
2023-04-15T10:28:22.885Z,94034.28
2023-04-15T10:30:50.099Z,94034.34
2023-04-15T10:33:20.758Z,94035.69
2023-04-15T10:35:48.918Z,94030.91
2023-04-15T10:38:34.495Z,94036.34
2023-04-15T10:41:14.659Z,94033.94
2023-04-15T10:43:51.920Z,94035.81
2023-04-15T10:46:21.339Z,94033.59
2023-04-15T10:48:50.138Z,94037.50
2023-04-15T10:51:16.989Z,94036.97
2023-04-15T10:53:43.615Z,94037.91
2023-04-15T10:56:10.546Z,94036.41
2023-04-15T10:58:44.181Z,94031.34
2023-04-15T11:01:11.025Z,94038.59
2023-04-15T11:03:40.191Z,94034.06
2023-04-15T11:06:07.546Z,94033.88
2023-04-15T11:08:57.499Z,94035.19
2023-04-15T11:11:44.941Z,94039.41
2023-04-15T11:14:16.373Z,94034.34
2023-04-15T11:16:45.061Z,94037.84
2023-04-15T11:19:12.013Z,94030.75
2023-04-15T11:21:38.664Z,94036.88
2023-04-15T11:24:05.437Z,94042.38
2023-04-15T11:26:32.365Z,94037.81
2023-04-15T11:28:59.769Z,94037.22
2023-04-15T11:31:28.605Z,94036.34
2023-04-15T11:33:58.251Z,94035.75
2023-04-15T11:36:27.543Z,94035.16
2023-04-15T11:38:54.411Z,94035.53
2023-04-15T11:41:24.313Z,94039.09
2023-04-15T11:43:52.096Z,94039.38
2023-04-15T11:46:19.010Z,94046.31
2023-04-15T11:48:47.311Z,94038.50
2023-04-15T11:51:14.526Z,94048.47
2023-04-15T11:53:46.714Z,94058.44
2023-04-15T11:56:25.256Z,94049.88
2023-04-15T11:59:03.023Z,94067.22
2023-04-15T12:01:42.250Z,94059.94
2023-04-15T12:04:21.474Z,94074.97
2023-04-15T12:06:49.950Z,94076.66
2023-04-15T12:09:17.068Z,94087.59
2023-04-15T12:11:47.087Z,94093.22
2023-04-15T12:14:32.115Z,94096.16
2023-04-15T12:17:03.574Z,94091.63
2023-04-15T12:19:32.503Z,94096.44
2023-04-15T12:22:20.928Z,94111.88
2023-04-15T12:24:49.072Z,94109.81
2023-04-15T12:27:17.161Z,94117.38
2023-04-15T12:29:43.964Z,94114.81
2023-04-15T12:32:11.756Z,94106.41
2023-04-15T12:34:50.197Z,94115.91
2023-04-15T12:37:17.683Z,94114.31
2023-04-15T12:39:45.886Z,94112.22
2023-04-15T12:42:13.248Z,94117.03
2023-04-15T12:44:40.492Z,94119.44
2023-04-15T12:47:08.506Z,94120.91
2023-04-15T12:49:35.148Z,94118.34
2023-04-15T12:52:03.426Z,94128.94
2023-04-15T12:54:31.375Z,94122.13
2023-04-15T12:56:59.242Z,94126.63
2023-04-15T12:59:25.931Z,94122.16
2023-04-15T13:01:53.891Z,94135.53
2023-04-15T13:04:21.913Z,94138.56
2023-04-15T13:06:48.989Z,94129.69
2023-04-15T13:09:15.856Z,94126.44
2023-04-15T13:11:43.121Z,94137.63
2023-04-15T13:14:12.839Z,94139.84
2023-04-15T13:16:39.747Z,94142.66
2023-04-15T13:19:06.482Z,94140.41
2023-04-15T13:21:36.240Z,94145.28
2023-04-15T13:24:04.905Z,94139.38
2023-04-15T13:26:32.357Z,94151.28
2023-04-15T13:28:59.452Z,94151.91
2023-04-15T13:31:26.400Z,94155.59
2023-04-15T13:33:53.280Z,94160.56
2023-04-15T13:36:20.032Z,94160.22
2023-04-15T13:38:48.054Z,94168.31
2023-04-15T13:41:16.635Z,94164.78
2023-04-15T13:43:43.422Z,94166.53
2023-04-15T13:46:10.395Z,94174.75
2023-04-15T13:48:37.098Z,94174.59
2023-04-15T13:51:03.778Z,94173.78
2023-04-15T13:53:37.930Z,94177.50
2023-04-15T13:56:09.216Z,94176.53
2023-04-15T13:58:37.062Z,94176.88
2023-04-15T14:01:05.742Z,94184.91
2023-04-15T14:03:33.362Z,94183.31
2023-04-15T14:06:00.022Z,94187.47
2023-04-15T14:08:27.081Z,94184.59
2023-04-15T14:10:53.856Z,94188.47
2023-04-15T14:13:20.597Z,94188.94
2023-04-15T14:15:47.304Z,94192.94
2023-04-15T14:18:14.437Z,94197.28
2023-04-15T14:20:41.118Z,94193.59
2023-04-15T14:23:07.954Z,94195.22
2023-04-15T14:25:34.636Z,94198.09
2023-04-15T14:28:02.656Z,94203.88
2023-04-15T14:30:29.386Z,94212.59
2023-04-15T14:32:56.545Z,94211.78
2023-04-15T14:35:25.432Z,94211.47
2023-04-15T14:37:53.553Z,94207.94
2023-04-15T14:40:20.497Z,94215.63
2023-04-15T14:42:47.151Z,94222.41
2023-04-15T14:45:13.876Z,94221.72
2023-04-15T14:47:40.811Z,94226.41
2023-04-15T14:50:08.034Z,94228.66
2023-04-15T14:52:38.689Z,94239.72
2023-04-15T14:55:14.590Z,94234.91
2023-04-15T14:57:42.763Z,94241.66
2023-04-15T15:00:13.772Z,94251.47
2023-04-15T15:02:43.284Z,94250.50
2023-04-15T15:05:10.881Z,94252.09
2023-04-15T15:07:38.650Z,94251.16
2023-04-15T15:10:06.079Z,94254.97
2023-04-15T15:12:33.528Z,94264.06
2023-04-15T15:15:01.637Z,94267.72
2023-04-15T15:17:29.876Z,94269.81
2023-04-15T15:19:57.406Z,94281.06
2023-04-15T15:22:24.688Z,94283.44
2023-04-15T15:24:51.256Z,94289.63
2023-04-15T15:27:17.917Z,94302.00
2023-04-15T15:29:44.730Z,94307.38
2023-04-15T15:32:11.360Z,94313.69
2023-04-15T15:34:38.272Z,94318.50
2023-04-15T15:37:04.910Z,94329.34
2023-04-15T15:39:31.609Z,94325.69
2023-04-15T15:41:58.307Z,94336.53
2023-04-15T15:44:24.917Z,94349.91
2023-04-15T15:46:51.829Z,94349.53
2023-04-15T15:49:19.682Z,94357.47
2023-04-15T15:51:46.699Z,94357.00
2023-04-15T15:54:13.414Z,94363.22
2023-04-15T15:56:40.374Z,94365.13
2023-04-15T15:59:07.217Z,94367.81
2023-04-15T16:01:34.301Z,94367.28
2023-04-15T16:04:01.281Z,94368.31
2023-04-15T16:06:28.175Z,94382.25
2023-04-15T16:08:54.949Z,94375.28
2023-04-15T16:11:21.613Z,94382.66
2023-04-15T16:13:48.178Z,94381.53
2023-04-15T16:16:15.211Z,94387.69
2023-04-15T16:18:41.803Z,94379.75
2023-04-15T16:21:08.639Z,94384.72
2023-04-15T16:23:36.780Z,94392.63
2023-04-15T16:26:03.794Z,94391.19
2023-04-15T16:28:30.479Z,94393.56
2023-04-15T16:30:57.161Z,94390.81
2023-04-15T16:33:24.197Z,94391.41
2023-04-15T16:35:51.725Z,94393.94
2023-04-15T16:38:18.390Z,94396.88
2023-04-15T16:40:46.339Z,94397.28
2023-04-15T16:43:12.889Z,94402.88
2023-04-15T16:45:39.737Z,94402.31
2023-04-15T16:48:06.659Z,94405.72
2023-04-15T16:50:33.493Z,94408.41
2023-04-15T16:53:01.032Z,94413.72
2023-04-15T16:55:27.564Z,94420.78
2023-04-15T16:58:01.525Z,94422.03
2023-04-15T17:00:29.802Z,94420.13
2023-04-15T17:02:56.608Z,94420.63
2023-04-15T17:05:23.559Z,94429.44
2023-04-15T17:07:50.085Z,94434.97
2023-04-15T17:10:16.645Z,94436.59
2023-04-15T17:12:43.439Z,94441.31
2023-04-15T17:15:10.594Z,94442.78
2023-04-15T17:17:37.432Z,94437.25
2023-04-15T17:20:04.315Z,94443.84
2023-04-15T17:22:31.348Z,94445.34
2023-04-15T17:24:57.894Z,94455.19
2023-04-15T17:27:26.652Z,94454.78
2023-04-15T17:29:53.215Z,94454.09
2023-04-15T17:32:20.311Z,94465.31
2023-04-15T17:34:50.013Z,94476.09
2023-04-15T17:37:17.959Z,94478.50
2023-04-15T17:39:44.520Z,94480.25
2023-04-15T17:42:11.570Z,94479.69
2023-04-15T17:44:38.251Z,94490.75
2023-04-15T17:47:04.955Z,94490.38
2023-04-15T17:49:34.168Z,94487.94
2023-04-15T17:52:01.202Z,94485.75
2023-04-15T17:54:28.115Z,94486.41
2023-04-15T17:56:54.889Z,94491.72
2023-04-15T17:59:21.609Z,94485.50
2023-04-15T18:01:48.718Z,94494.38
2023-04-15T18:04:15.756Z,94499.50
2023-04-15T18:06:42.538Z,94491.63
2023-04-15T18:09:09.334Z,94498.09
2023-04-15T18:11:36.291Z,94502.75
2023-04-15T18:14:04.248Z,94503.44
2023-04-15T18:16:31.324Z,94507.66
2023-04-15T18:18:58.156Z,94504.13
2023-04-15T18:21:24.934Z,94510.03
2023-04-15T18:23:51.508Z,94520.66
2023-04-15T18:26:18.358Z,94521.34
2023-04-15T18:28:45.012Z,94517.88
2023-04-15T18:31:11.679Z,94525.38
2023-04-15T18:33:39.062Z,94531.78
2023-04-15T18:36:05.976Z,94534.56
2023-04-15T18:38:32.913Z,94533.97
2023-04-15T18:40:59.668Z,94542.63
2023-04-15T18:43:26.343Z,94549.09
2023-04-15T18:45:54.605Z,94553.94
2023-04-15T18:48:21.541Z,94552.81
2023-04-15T18:50:48.988Z,94556.81
2023-04-15T18:53:16.428Z,94564.88
2023-04-15T18:55:43.015Z,94559.78
2023-04-15T18:58:09.913Z,94576.59
2023-04-15T19:00:40.678Z,94587.66
2023-04-15T19:03:08.058Z,94585.31
2023-04-15T19:05:35.693Z,94584.31
2023-04-15T19:08:02.471Z,94592.28
2023-04-15T19:10:29.246Z,94596.78
2023-04-15T19:12:56.022Z,94599.00
2023-04-15T19:15:22.807Z,94603.63
2023-04-15T19:17:49.609Z,94609.13
2023-04-15T19:20:16.935Z,94606.66
2023-04-15T19:22:43.675Z,94607.53
2023-04-15T19:25:10.433Z,94612.91
2023-04-15T19:27:38.511Z,94611.88
2023-04-15T19:30:06.982Z,94616.56
2023-04-15T19:32:34.137Z,94620.09
2023-04-15T19:35:00.819Z,94622.09
2023-04-15T19:37:27.539Z,94626.53
2023-04-15T19:39:54.736Z,94622.19
2023-04-15T19:42:21.563Z,94625.53
2023-04-15T19:44:48.373Z,94624.88
2023-04-15T19:47:15.027Z,94630.13
2023-04-15T19:49:41.969Z,94632.75
2023-04-15T19:52:08.700Z,94636.13
2023-04-15T19:54:35.369Z,94631.09
2023-04-15T19:57:02.220Z,94636.34
2023-04-15T19:59:28.847Z,94637.81
2023-04-15T20:01:55.816Z,94639.69
2023-04-15T20:04:23.197Z,94639.88
2023-04-15T20:06:50.057Z,94636.75
2023-04-15T20:09:16.903Z,94647.31
2023-04-15T20:12:44.937Z,94655.19
2023-04-15T20:14:30.958Z,94647.78
2023-04-15T20:16:57.837Z,94646.00
2023-04-15T20:19:24.376Z,94656.19
2023-04-15T20:21:52.552Z,94653.59
2023-04-15T20:24:21.576Z,94657.00
2023-04-15T20:26:48.118Z,94662.03
2023-04-15T20:29:14.993Z,94668.22
2023-04-15T20:31:41.900Z,94661.88
2023-04-15T20:34:11.359Z,94669.13
2023-04-15T20:36:38.641Z,94673.44
2023-04-15T20:39:05.748Z,94678.13
2023-04-15T20:41:32.563Z,94681.50
2023-04-15T20:43:59.464Z,94680.94
2023-04-15T20:46:27.845Z,94682.00
2023-04-15T20:48:55.723Z,94692.91
2023-04-15T20:51:22.471Z,94683.50
2023-04-15T20:53:49.636Z,94692.03
2023-04-15T20:56:16.355Z,94688.78
2023-04-15T20:58:42.983Z,94692.97
2023-04-15T21:01:09.831Z,94697.63
2023-04-15T21:03:36.779Z,94691.28
2023-04-15T21:06:03.674Z,94698.09
2023-04-15T21:08:31.860Z,94696.28
2023-04-15T21:10:58.524Z,94698.72
2023-04-15T21:13:25.694Z,94697.47
2023-04-15T21:15:54.213Z,94704.03
2023-04-15T21:18:21.972Z,94704.59
2023-04-15T21:21:02.208Z,94709.09
2023-04-15T21:23:36.014Z,94708.19
2023-04-15T21:26:02.931Z,94712.06
2023-04-15T21:28:29.876Z,94716.03
2023-04-15T21:30:57.798Z,94721.81
2023-04-15T21:33:24.502Z,94716.28
2023-04-15T21:35:51.732Z,94718.22
2023-04-15T21:38:18.386Z,94717.38
2023-04-15T21:40:45.060Z,94720.91
2023-04-15T21:43:12.159Z,94727.34
2023-04-15T21:45:39.587Z,94731.66
2023-04-15T21:48:08.127Z,94735.41
2023-04-15T21:50:38.224Z,94730.03
2023-04-15T21:53:07.733Z,94741.53
2023-04-15T21:55:34.552Z,94739.59
2023-04-15T21:58:01.314Z,94741.53
2023-04-15T22:00:28.068Z,94743.31
2023-04-15T22:02:54.924Z,94744.34
2023-04-15T22:05:21.896Z,94749.97
2023-04-15T22:07:48.570Z,94750.69
2023-04-15T22:10:15.483Z,94755.56
2023-04-15T22:12:42.310Z,94755.31
2023-04-15T22:15:09.466Z,94758.63
2023-04-15T22:17:36.173Z,94759.25
2023-04-15T22:20:03.764Z,94764.34
2023-04-15T22:22:43.597Z,94766.69
2023-04-15T22:25:12.288Z,94766.34
2023-04-15T22:27:39.396Z,94773.75
2023-04-15T22:30:06.848Z,94781.59
2023-04-15T22:32:33.457Z,94786.16
2023-04-15T22:35:01.643Z,94780.88
2023-04-15T22:37:31.426Z,94786.84
2023-04-15T22:39:58.273Z,94790.09
2023-04-15T22:42:25.342Z,94787.09
2023-04-15T22:44:52.069Z,94794.88
2023-04-15T22:47:19.106Z,94797.19
2023-04-15T22:49:46.115Z,94787.59
2023-04-15T22:52:23.333Z,94788.88
2023-04-15T22:54:54.183Z,94794.78
2023-04-15T22:57:20.710Z,94794.91
2023-04-15T22:59:47.504Z,94786.56
2023-04-15T23:02:14.439Z,94790.75
2023-04-15T23:04:41.435Z,94784.84
2023-04-15T23:07:08.266Z,94789.50
2023-04-15T23:09:35.032Z,94782.47
2023-04-15T23:12:02.969Z,94785.28
2023-04-15T23:14:31.554Z,94784.16
2023-04-15T23:16:58.506Z,94785.44
2023-04-15T23:19:25.230Z,94782.97
2023-04-15T23:21:51.959Z,94789.50
2023-04-15T23:24:18.590Z,94784.28
2023-04-15T23:26:45.558Z,94789.13
2023-04-15T23:29:12.235Z,94790.97
2023-04-15T23:31:39.053Z,94793.28
2023-04-15T23:34:06.403Z,94795.19
2023-04-15T23:36:33.275Z,94794.81
2023-04-15T23:39:00.043Z,94794.25
2023-04-15T23:41:26.600Z,94798.06
2023-04-15T23:43:53.306Z,94792.25
2023-04-15T23:46:20.269Z,94798.78
2023-04-15T23:48:47.934Z,94797.84
2023-04-15T23:51:14.867Z,94801.91
2023-04-15T23:53:41.825Z,94799.56
2023-04-15T23:56:08.528Z,94804.22
2023-04-15T23:58:35.235Z,94807.00
